createdAt,value
2022-08-22T00:00:18.286Z,99664.91
2022-08-22T00:02:59.904Z,99669.69
2022-08-22T00:15:43.429Z,99684.41
2022-08-22T00:31:01.011Z,99685.75
2022-08-22T00:46:56.765Z,99688.63
2022-08-22T01:02:17.628Z,99697.72
2022-08-22T01:17:50.520Z,99699.53
2022-08-22T01:33:10.623Z,99697.34
2022-08-22T01:48:15.425Z,99703.41
2022-08-22T02:03:28.242Z,99696.47
2022-08-22T02:18:43.222Z,99705.81
2022-08-22T02:33:56.982Z,99714.16
2022-08-22T02:49:32.692Z,99702.88
2022-08-22T03:04:41.801Z,99706.44
2022-08-22T03:19:56.009Z,99725.31
2022-08-22T03:35:09.867Z,99726.56
2022-08-22T03:50:26.741Z,99729.59
2022-08-22T04:05:54.556Z,99754.22
2022-08-22T04:21:08.575Z,99770.28
2022-08-22T04:36:17.839Z,99780.06
2022-08-22T04:51:26.797Z,99792.28
2022-08-22T05:06:32.752Z,99793.94
2022-08-22T05:21:38.876Z,99790.19
2022-08-22T05:36:46.183Z,99794.97
2022-08-22T05:52:06.189Z,99795.63
2022-08-22T06:07:26.799Z,99800.25
2022-08-22T06:22:34.044Z,99807.22
2022-08-22T06:37:41.376Z,99801.94
2022-08-22T06:53:12.215Z,99816.69
2022-08-22T07:08:16.479Z,99816.00
2022-08-22T07:23:42.136Z,99813.88
2022-08-22T07:38:55.154Z,99809.66
2022-08-22T07:54:02.185Z,99827.28
2022-08-22T08:09:05.064Z,99839.59
2022-08-22T08:24:12.256Z,99840.06
2022-08-22T08:39:34.937Z,99830.75
2022-08-22T08:54:43.690Z,99814.53
2022-08-22T09:10:27.409Z,99799.06
2022-08-22T09:25:51.653Z,99808.47
2022-08-22T09:41:07.040Z,99812.06
2022-08-22T09:56:15.934Z,99811.91
2022-08-22T10:11:42.432Z,99816.59
2022-08-22T10:26:52.991Z,99807.69
2022-08-22T10:42:06.903Z,99794.44
2022-08-22T10:57:28.328Z,99811.81
2022-08-22T11:12:41.774Z,99810.91
2022-08-22T11:28:17.836Z,99801.03
2022-08-22T11:43:49.753Z,99798.97
2022-08-22T11:59:19.294Z,99783.00
2022-08-22T12:14:47.504Z,99786.06
2022-08-22T12:29:59.510Z,99802.94
2022-08-22T12:45:07.175Z,99814.13
2022-08-22T13:00:45.382Z,99822.00
2022-08-22T13:15:57.617Z,99815.63
2022-08-22T13:31:02.385Z,99800.31
2022-08-22T13:46:11.064Z,99800.66
2022-08-22T14:01:16.588Z,99804.03
2022-08-22T14:16:21.537Z,99798.28
2022-08-22T14:31:26.931Z,99794.38
2022-08-22T14:46:53.931Z,99783.19
2022-08-22T15:02:01.580Z,99789.91
2022-08-22T15:17:08.697Z,99783.03
2022-08-22T15:32:12.275Z,99795.50
2022-08-22T15:47:34.970Z,99794.06
2022-08-22T16:03:03.279Z,99803.88
2022-08-22T16:18:05.832Z,99814.88
2022-08-22T16:33:17.654Z,99813.97
2022-08-22T16:48:35.306Z,99822.06
2022-08-22T17:03:58.682Z,99831.63
2022-08-22T17:19:21.883Z,99819.59
2022-08-22T17:34:51.097Z,99827.34
2022-08-22T17:50:30.260Z,99828.00
2022-08-22T18:05:39.960Z,99831.09
2022-08-22T18:21:06.898Z,99833.06
2022-08-22T18:36:21.391Z,99834.09
2022-08-22T18:51:25.326Z,99824.69
2022-08-22T19:07:04.837Z,99838.94
2022-08-22T19:22:27.454Z,99858.78
2022-08-22T19:37:32.161Z,99864.25
2022-08-22T19:53:01.944Z,99874.41
2022-08-22T20:08:14.043Z,99872.81
2022-08-22T20:23:20.712Z,99878.56
2022-08-22T20:38:27.263Z,99884.91
2022-08-22T20:53:29.252Z,99891.72
2022-08-22T21:08:31.112Z,99897.47
2022-08-22T21:23:33.191Z,99911.31
2022-08-22T21:38:35.437Z,99914.75
2022-08-22T21:53:37.302Z,99906.94
2022-08-22T22:08:41.030Z,99921.28
2022-08-22T22:23:43.048Z,99931.25
2022-08-22T22:38:45.025Z,99939.78
2022-08-22T22:53:47.021Z,99942.59
2022-08-22T23:08:49.101Z,99953.28
2022-08-22T23:23:51.834Z,99978.91
2022-08-22T23:38:53.820Z,99981.31
2022-08-22T23:53:57.317Z,99998.03
